Portada
METAR-TAF:

METAR-TAF

Aeroports :

Hanoi, Vietnam

latitud: 21-01N, longitud: 105-48E, altitud: 6 m

Observació

L'informe es va fer fa 26 minuts, a les 04:30 UTC
Vent 5 kt amb direcció variable
Temperatura 26°C
Humitat 70%
Pressió 1019 hPa
Visibilitat 10 km o més
Cel ennuvolat a una alçada de 4800 ft

METAR: VVNB 150430Z VRB05KT 9999 BKN048 26/20 Q1019 NOSIG

Hora: 11:56 (04:56 UTC)

Pronòstic

L'informe es va fer fa 5 hores i 56 minuts, a les 23:00 UTC
Pronòstic vàlid del 15 a les 00 UTC al 15 a les 24 UTC
Vent 9 kt del Nord
Visibilitat: 6000 m
Núvols disperses a una alçada de 2000 ft

TAF: VVNB 142300Z 1500/1524 36009KT 6000 SCT020

Observacions i pronòstics meteorològics de més de 4000 aeroports (METAR i TAF).

Les estacions disponibles són els punts grocs i vermells al mapa.

Posi el ratolí al punt desitjat per veure el nom de l'estació.

Feu clic per veure les observacions i els pronòstics meteorològics.

Per canviar el mapa: feu clic els botons verds amb una creu de color negre per apropar; al botó verd amb un guió per allunyar la imatge; o en les fletxes verdes per a mapes adjacents.


METAR-TAF: